createdAt,value
2022-10-04T00:00:02.494Z,1016.6
2022-10-04T00:15:02.870Z,1016.6
2022-10-04T00:30:02.422Z,1016.4
2022-10-04T00:45:02.751Z,1016.4
2022-10-04T01:00:03.423Z,1015.9
2022-10-04T01:15:02.616Z,1016.1
2022-10-04T01:30:03.094Z,1016.0
2022-10-04T01:45:02.499Z,1015.8
2022-10-04T02:00:02.927Z,1015.7
2022-10-04T02:15:02.451Z,1015.6
2022-10-04T02:30:02.804Z,1015.4
2022-10-04T02:45:03.456Z,1015.4
2022-10-04T03:00:02.679Z,1015.2
2022-10-04T03:15:03.130Z,1015.0
2022-10-04T03:30:02.528Z,1014.9
2022-10-04T03:45:02.973Z,1014.9
2022-10-04T04:00:02.464Z,1014.9
2022-10-04T04:15:02.884Z,1014.7
2022-10-04T04:30:02.464Z,1014.8
2022-10-04T04:45:02.716Z,1014.7
2022-10-04T05:00:03.201Z,1014.7
2022-10-04T05:15:02.639Z,1014.7
2022-10-04T05:30:03.070Z,1014.6
2022-10-04T05:45:02.498Z,1014.5
2022-10-04T06:00:04.623Z,1014.7
2022-10-04T06:15:02.485Z,1014.5
2022-10-04T06:30:02.824Z,1014.4
2022-10-04T06:45:03.493Z,1014.4
2022-10-04T07:00:02.706Z,1014.5
2022-10-04T07:15:03.171Z,1014.5
2022-10-04T07:30:02.600Z,1014.6
2022-10-04T07:45:03.047Z,1014.8
2022-10-04T08:00:02.507Z,1014.9
2022-10-04T08:15:02.919Z,1014.8
2022-10-04T08:30:02.516Z,1014.7
2022-10-04T08:45:02.794Z,1014.7
2022-10-04T09:00:03.202Z,1014.5
2022-10-04T09:15:02.674Z,1014.4
2022-10-04T09:30:03.094Z,1014.2
2022-10-04T09:45:02.548Z,1014.1
2022-10-04T10:00:02.975Z,1014.2
2022-10-04T10:15:02.541Z,1013.8
2022-10-04T10:30:02.850Z,1013.9
2022-10-04T10:45:02.541Z,1013.9
2022-10-04T11:00:02.773Z,1013.9
2022-10-04T11:15:03.207Z,1013.7
2022-10-04T11:30:02.627Z,1013.5
2022-10-04T11:45:03.069Z,1013.3
2022-10-04T12:00:02.569Z,1013.3
2022-10-04T12:15:02.978Z,1013.1
2022-10-04T12:30:02.565Z,1012.9
2022-10-04T12:45:02.838Z,1012.7
2022-10-04T13:00:02.260Z,1012.5
2022-10-04T13:15:02.651Z,1012.5
2022-10-04T13:30:03.193Z,1012.2
2022-10-04T13:45:02.562Z,1012.0
2022-10-04T14:00:03.135Z,1012.0
2022-10-04T14:15:02.593Z,1011.9
2022-10-04T14:30:02.916Z,1012.0
2022-10-04T14:45:02.564Z,1011.9
2022-10-04T15:00:02.796Z,1011.6
2022-10-04T15:15:03.225Z,1011.5
2022-10-04T15:30:02.738Z,1011.5
2022-10-04T15:45:03.115Z,1011.4
2022-10-04T16:00:02.586Z,1011.6
2022-10-04T16:15:03.144Z,1011.7
2022-10-04T16:30:25.580Z,1011.5
2022-10-04T16:45:02.861Z,1011.5
2022-10-04T17:00:02.304Z,1011.4
2022-10-04T17:15:02.745Z,1011.3
2022-10-04T17:30:03.169Z,1011.4
2022-10-04T17:45:02.618Z,1011.6
2022-10-04T18:00:03.078Z,1011.5
2022-10-04T18:15:02.628Z,1011.7
2022-10-04T18:30:02.910Z,1011.8
2022-10-04T18:45:02.562Z,1011.4
2022-10-04T19:00:02.795Z,1011.9
2022-10-04T19:15:03.258Z,1011.9
2022-10-04T19:30:02.709Z,1011.7
2022-10-04T19:45:03.139Z,1011.7
2022-10-04T20:00:02.642Z,1011.7
2022-10-04T20:15:03.043Z,1011.7
2022-10-04T20:30:02.650Z,1011.4
2022-10-04T20:45:02.882Z,1011.3
2022-10-04T21:00:02.351Z,1011.0
2022-10-04T21:15:02.814Z,1011.2
2022-10-04T21:30:02.215Z,1011.2
2022-10-04T21:45:02.675Z,1011.1
2022-10-04T22:00:03.111Z,1011.1
2022-10-04T22:15:02.675Z,1011.3
2022-10-04T22:30:03.023Z,1011.1
2022-10-04T22:45:02.673Z,1011.1
2022-10-04T23:00:02.911Z,1011.1
2022-10-04T23:15:02.362Z,1011.1
2022-10-04T23:30:02.847Z,1011.0
2022-10-04T23:45:02.227Z,1010.9
